sensor_id;sensor_type;location;lat;lon;timestamp;temperature;humidity
48898;DHT22;34713;50.038;20.000;2022-10-16T00:00:34;16.01;60.85
48898;DHT22;34713;50.038;20.000;2022-10-16T00:03:04;15.93;61.15
48898;DHT22;34713;50.038;20.000;2022-10-16T00:05:30;15.85;61.50
48898;DHT22;34713;50.038;20.000;2022-10-16T00:07:56;15.73;61.90
48898;DHT22;34713;50.038;20.000;2022-10-16T00:10:22;15.62;62.28
48898;DHT22;34713;50.038;20.000;2022-10-16T00:12:48;15.62;62.68
48898;DHT22;34713;50.038;20.000;2022-10-16T00:15:14;15.89;62.48
48898;DHT22;34713;50.038;20.000;2022-10-16T00:17:40;16.06;62.08
48898;DHT22;34713;50.038;20.000;2022-10-16T00:20:07;16.21;61.63
48898;DHT22;34713;50.038;20.000;2022-10-16T00:22:33;16.31;61.19
48898;DHT22;34713;50.038;20.000;2022-10-16T00:24:59;16.41;60.86
48898;DHT22;34713;50.038;20.000;2022-10-16T00:27:25;16.52;60.58
48898;DHT22;34713;50.038;20.000;2022-10-16T00:29:52;16.62;60.25
48898;DHT22;34713;50.038;20.000;2022-10-16T00:32:19;16.69;59.91
48898;DHT22;34713;50.038;20.000;2022-10-16T00:34:46;16.75;59.89
48898;DHT22;34713;50.038;20.000;2022-10-16T00:37:12;16.79;59.80
48898;DHT22;34713;50.038;20.000;2022-10-16T00:39:38;16.86;59.60
48898;DHT22;34713;50.038;20.000;2022-10-16T00:42:05;16.89;59.47
48898;DHT22;34713;50.038;20.000;2022-10-16T00:44:51;16.93;59.26
48898;DHT22;34713;50.038;20.000;2022-10-16T00:47:39;16.79;59.16
48898;DHT22;34713;50.038;20.000;2022-10-16T00:50:16;16.52;59.68
48898;DHT22;34713;50.038;20.000;2022-10-16T00:52:43;16.31;60.19
48898;DHT22;34713;50.038;20.000;2022-10-16T00:55:10;16.12;60.63
48898;DHT22;34713;50.038;20.000;2022-10-16T00:57:37;15.98;60.99
48898;DHT22;34713;50.038;20.000;2022-10-16T01:00:07;15.87;61.26
48898;DHT22;34713;50.038;20.000;2022-10-16T01:02:34;15.79;61.59
48898;DHT22;34713;50.038;20.000;2022-10-16T01:05:00;15.69;61.92
48898;DHT22;34713;50.038;20.000;2022-10-16T01:10:48;15.55;62.40
48898;DHT22;34713;50.038;20.000;2022-10-16T01:13:15;15.65;62.72
48898;DHT22;34713;50.038;20.000;2022-10-16T01:21:02;16.25;61.40
48898;DHT22;34713;50.038;20.000;2022-10-16T01:26:36;16.50;60.69
48898;DHT22;34713;50.038;20.000;2022-10-16T01:29:20;16.58;60.46
48898;DHT22;34713;50.038;20.000;2022-10-16T01:31:53;16.66;60.18
48898;DHT22;34713;50.038;20.000;2022-10-16T01:34:33;16.75;60.00
48898;DHT22;34713;50.038;20.000;2022-10-16T01:37:09;16.82;59.81
48898;DHT22;34713;50.038;20.000;2022-10-16T01:39:35;16.89;59.63
48898;DHT22;34713;50.038;20.000;2022-10-16T01:42:19;16.95;59.46
48898;DHT22;34713;50.038;20.000;2022-10-16T01:44:43;17.02;59.32
48898;DHT22;34713;50.038;20.000;2022-10-16T01:47:13;16.92;59.17
48898;DHT22;34713;50.038;20.000;2022-10-16T01:49:40;16.66;59.63
48898;DHT22;34713;50.038;20.000;2022-10-16T01:52:10;16.45;60.23
48898;DHT22;34713;50.038;20.000;2022-10-16T01:54:39;16.27;60.79
48898;DHT22;34713;50.038;20.000;2022-10-16T01:57:07;16.10;61.23
48898;DHT22;34713;50.038;20.000;2022-10-16T01:59:38;15.96;61.69
48898;DHT22;34713;50.038;20.000;2022-10-16T02:02:07;15.85;62.16
48898;DHT22;34713;50.038;20.000;2022-10-16T02:04:42;15.72;62.58
48898;DHT22;34713;50.038;20.000;2022-10-16T02:07:05;15.77;62.83
48898;DHT22;34713;50.038;20.000;2022-10-16T02:09:34;16.00;62.55
48898;DHT22;34713;50.038;20.000;2022-10-16T02:12:15;16.19;62.23
48898;DHT22;34713;50.038;20.000;2022-10-16T02:14:39;16.31;61.84
48898;DHT22;34713;50.038;20.000;2022-10-16T02:17:11;16.44;61.50
48898;DHT22;34713;50.038;20.000;2022-10-16T02:19:38;16.54;61.28
48898;DHT22;34713;50.038;20.000;2022-10-16T02:22:07;16.62;61.05
48898;DHT22;34713;50.038;20.000;2022-10-16T02:24:48;16.66;60.88
48898;DHT22;34713;50.038;20.000;2022-10-16T02:27:44;16.75;60.70
48898;DHT22;34713;50.038;20.000;2022-10-16T02:30:35;16.79;60.48
48898;DHT22;34713;50.038;20.000;2022-10-16T02:32:44;16.79;60.38
48898;DHT22;34713;50.038;20.000;2022-10-16T02:35:10;16.86;60.43
48898;DHT22;34713;50.038;20.000;2022-10-16T02:37:37;16.88;60.42
48898;DHT22;34713;50.038;20.000;2022-10-16T02:40:05;16.91;60.33
48898;DHT22;34713;50.038;20.000;2022-10-16T02:42:37;16.93;60.26
48898;DHT22;34713;50.038;20.000;2022-10-16T02:45:05;16.98;60.21
48898;DHT22;34713;50.038;20.000;2022-10-16T02:47:32;16.98;60.16
48898;DHT22;34713;50.038;20.000;2022-10-16T02:49:58;17.01;60.03
48898;DHT22;34713;50.038;20.000;2022-10-16T02:52:24;17.02;60.02
48898;DHT22;34713;50.038;20.000;2022-10-16T02:54:50;17.02;60.06
48898;DHT22;34713;50.038;20.000;2022-10-16T02:57:16;17.03;60.05
48898;DHT22;34713;50.038;20.000;2022-10-16T02:59:42;17.03;60.11
48898;DHT22;34713;50.038;20.000;2022-10-16T03:02:07;17.03;60.10
48898;DHT22;34713;50.038;20.000;2022-10-16T03:04:33;17.03;60.13
48898;DHT22;34713;50.038;20.000;2022-10-16T03:06:59;17.03;60.12
48898;DHT22;34713;50.038;20.000;2022-10-16T03:09:25;17.03;60.08
48898;DHT22;34713;50.038;20.000;2022-10-16T03:11:50;17.03;60.08
48898;DHT22;34713;50.038;20.000;2022-10-16T03:14:17;17.05;60.09
48898;DHT22;34713;50.038;20.000;2022-10-16T03:16:43;17.03;60.17
48898;DHT22;34713;50.038;20.000;2022-10-16T03:19:09;17.03;60.28
48898;DHT22;34713;50.038;20.000;2022-10-16T03:21:35;17.02;60.33
48898;DHT22;34713;50.038;20.000;2022-10-16T03:24:01;17.01;60.33
48898;DHT22;34713;50.038;20.000;2022-10-16T03:26:26;17.01;60.36
48898;DHT22;34713;50.038;20.000;2022-10-16T03:28:52;16.98;60.43
48898;DHT22;34713;50.038;20.000;2022-10-16T03:31:18;16.95;60.51
48898;DHT22;34713;50.038;20.000;2022-10-16T03:33:44;16.92;60.52
48898;DHT22;34713;50.038;20.000;2022-10-16T03:36:09;16.91;60.62
48898;DHT22;34713;50.038;20.000;2022-10-16T03:38:35;16.88;60.72
48898;DHT22;34713;50.038;20.000;2022-10-16T03:41:01;16.85;60.83
48898;DHT22;34713;50.038;20.000;2022-10-16T03:43:27;16.83;60.90
48898;DHT22;34713;50.038;20.000;2022-10-16T03:45:52;16.80;60.99
48898;DHT22;34713;50.038;20.000;2022-10-16T03:48:19;16.80;60.98
48898;DHT22;34713;50.038;20.000;2022-10-16T03:50:45;16.80;61.02
48898;DHT22;34713;50.038;20.000;2022-10-16T03:53:12;16.79;61.07
48898;DHT22;34713;50.038;20.000;2022-10-16T03:55:37;16.78;61.07
48898;DHT22;34713;50.038;20.000;2022-10-16T03:58:03;16.80;61.04
48898;DHT22;34713;50.038;20.000;2022-10-16T04:00:29;16.78;61.04
48898;DHT22;34713;50.038;20.000;2022-10-16T04:02:55;16.78;61.04
48898;DHT22;34713;50.038;20.000;2022-10-16T04:05:21;16.79;61.07
48898;DHT22;34713;50.038;20.000;2022-10-16T04:07:46;16.79;61.06
48898;DHT22;34713;50.038;20.000;2022-10-16T04:10:12;16.76;61.06
48898;DHT22;34713;50.038;20.000;2022-10-16T04:12:38;16.75;61.09
48898;DHT22;34713;50.038;20.000;2022-10-16T04:15:04;16.75;61.10
48898;DHT22;34713;50.038;20.000;2022-10-16T04:17:30;16.76;61.14
48898;DHT22;34713;50.038;20.000;2022-10-16T04:19:56;16.72;61.21
48898;DHT22;34713;50.038;20.000;2022-10-16T04:22:22;16.73;61.20
48898;DHT22;34713;50.038;20.000;2022-10-16T04:24:48;16.73;61.18
48898;DHT22;34713;50.038;20.000;2022-10-16T04:27:14;16.75;61.20
48898;DHT22;34713;50.038;20.000;2022-10-16T04:29:40;16.72;61.21
48898;DHT22;34713;50.038;20.000;2022-10-16T04:32:08;16.71;61.34
48898;DHT22;34713;50.038;20.000;2022-10-16T04:34:34;16.68;61.38
48898;DHT22;34713;50.038;20.000;2022-10-16T04:37:00;16.68;61.40
48898;DHT22;34713;50.038;20.000;2022-10-16T04:39:26;16.66;61.42
48898;DHT22;34713;50.038;20.000;2022-10-16T04:41:52;16.62;61.51
48898;DHT22;34713;50.038;20.000;2022-10-16T04:44:17;16.61;61.58
48898;DHT22;34713;50.038;20.000;2022-10-16T04:46:43;16.59;61.60
48898;DHT22;34713;50.038;20.000;2022-10-16T04:49:09;16.58;61.59
48898;DHT22;34713;50.038;20.000;2022-10-16T04:51:35;16.55;61.68
48898;DHT22;34713;50.038;20.000;2022-10-16T04:54:01;16.54;61.66
48898;DHT22;34713;50.038;20.000;2022-10-16T04:56:27;16.51;61.70
48898;DHT22;34713;50.038;20.000;2022-10-16T04:58:53;16.51;61.72
48898;DHT22;34713;50.038;20.000;2022-10-16T05:01:19;16.48;61.74
48898;DHT22;34713;50.038;20.000;2022-10-16T05:03:45;16.45;61.75
48898;DHT22;34713;50.038;20.000;2022-10-16T05:06:11;16.44;61.81
48898;DHT22;34713;50.038;20.000;2022-10-16T05:08:37;16.40;61.84
48898;DHT22;34713;50.038;20.000;2022-10-16T05:11:03;16.41;61.86
48898;DHT22;34713;50.038;20.000;2022-10-16T05:13:29;16.37;61.90
48898;DHT22;34713;50.038;20.000;2022-10-16T05:15:54;16.35;61.97
48898;DHT22;34713;50.038;20.000;2022-10-16T05:18:20;16.31;62.10
48898;DHT22;34713;50.038;20.000;2022-10-16T05:20:46;16.33;62.24
48898;DHT22;34713;50.038;20.000;2022-10-16T05:23:12;16.31;62.29
48898;DHT22;34713;50.038;20.000;2022-10-16T05:25:38;16.31;62.31
48898;DHT22;34713;50.038;20.000;2022-10-16T05:28:04;16.31;62.34
48898;DHT22;34713;50.038;20.000;2022-10-16T05:30:29;16.28;62.37
48898;DHT22;34713;50.038;20.000;2022-10-16T05:32:55;16.28;62.38
48898;DHT22;34713;50.038;20.000;2022-10-16T05:35:21;16.30;62.35
48898;DHT22;34713;50.038;20.000;2022-10-16T05:37:47;16.34;62.35
48898;DHT22;34713;50.038;20.000;2022-10-16T05:40:14;16.34;62.32
48898;DHT22;34713;50.038;20.000;2022-10-16T05:42:41;16.48;62.21
48898;DHT22;34713;50.038;20.000;2022-10-16T05:45:10;16.69;61.78
48898;DHT22;34713;50.038;20.000;2022-10-16T05:47:36;16.79;61.54
48898;DHT22;34713;50.038;20.000;2022-10-16T05:50:02;16.82;61.53
48898;DHT22;34713;50.038;20.000;2022-10-16T05:52:29;16.91;61.62
48898;DHT22;34713;50.038;20.000;2022-10-16T05:54:55;16.96;61.59
48898;DHT22;34713;50.038;20.000;2022-10-16T05:57:21;17.03;61.60
48898;DHT22;34713;50.038;20.000;2022-10-16T05:59:47;17.02;61.63
48898;DHT22;34713;50.038;20.000;2022-10-16T06:02:13;17.02;61.60
48898;DHT22;34713;50.038;20.000;2022-10-16T06:04:39;17.03;61.63
48898;DHT22;34713;50.038;20.000;2022-10-16T06:07:05;17.05;61.64
48898;DHT22;34713;50.038;20.000;2022-10-16T06:09:31;17.07;61.62
48898;DHT22;34713;50.038;20.000;2022-10-16T06:11:56;17.06;61.58
48898;DHT22;34713;50.038;20.000;2022-10-16T06:14:22;17.13;61.62
48898;DHT22;34713;50.038;20.000;2022-10-16T06:16:48;17.13;61.59
48898;DHT22;34713;50.038;20.000;2022-10-16T06:19:14;17.17;61.60
48898;DHT22;34713;50.038;20.000;2022-10-16T06:21:41;17.16;61.64
48898;DHT22;34713;50.038;20.000;2022-10-16T06:24:08;17.20;61.63
48898;DHT22;34713;50.038;20.000;2022-10-16T06:26:34;17.20;61.63
48898;DHT22;34713;50.038;20.000;2022-10-16T06:28:59;17.23;61.56
48898;DHT22;34713;50.038;20.000;2022-10-16T06:31:27;17.27;61.54
48898;DHT22;34713;50.038;20.000;2022-10-16T06:33:55;17.34;61.52
48898;DHT22;34713;50.038;20.000;2022-10-16T06:36:22;17.41;61.45
48898;DHT22;34713;50.038;20.000;2022-10-16T06:38:48;17.51;61.45
48898;DHT22;34713;50.038;20.000;2022-10-16T06:41:17;17.61;61.36
48898;DHT22;34713;50.038;20.000;2022-10-16T06:43:43;17.68;61.24
48898;DHT22;34713;50.038;20.000;2022-10-16T06:46:13;17.80;61.11
48898;DHT22;34713;50.038;20.000;2022-10-16T06:48:39;17.91;60.96
48898;DHT22;34713;50.038;20.000;2022-10-16T06:51:18;17.98;60.79
48898;DHT22;34713;50.038;20.000;2022-10-16T06:53:47;18.09;60.68
48898;DHT22;34713;50.038;20.000;2022-10-16T06:56:22;18.17;60.50
48898;DHT22;34713;50.038;20.000;2022-10-16T06:58:49;18.26;60.41
48898;DHT22;34713;50.038;20.000;2022-10-16T07:01:17;18.36;60.33
48898;DHT22;34713;50.038;20.000;2022-10-16T07:03:45;18.43;60.11
48898;DHT22;34713;50.038;20.000;2022-10-16T07:06:14;18.50;60.02
48898;DHT22;34713;50.038;20.000;2022-10-16T07:08:42;18.56;59.92
48898;DHT22;34713;50.038;20.000;2022-10-16T07:11:15;18.61;59.83
48898;DHT22;34713;50.038;20.000;2022-10-16T07:13:40;18.77;59.78
48898;DHT22;34713;50.038;20.000;2022-10-16T07:16:17;18.87;59.65
48898;DHT22;34713;50.038;20.000;2022-10-16T07:18:40;19.01;59.41
48898;DHT22;34713;50.038;20.000;2022-10-16T07:21:17;19.01;59.28
48898;DHT22;34713;50.038;20.000;2022-10-16T07:23:43;18.81;59.69
48898;DHT22;34713;50.038;20.000;2022-10-16T07:26:10;18.64;60.15
48898;DHT22;34713;50.038;20.000;2022-10-16T07:28:36;18.51;60.85
48898;DHT22;34713;50.038;20.000;2022-10-16T07:31:06;18.41;61.09
48898;DHT22;34713;50.038;20.000;2022-10-16T07:33:34;18.31;61.47
48898;DHT22;34713;50.038;20.000;2022-10-16T07:36:00;18.27;61.96
48898;DHT22;34713;50.038;20.000;2022-10-16T07:38:26;18.19;62.24
48898;DHT22;34713;50.038;20.000;2022-10-16T07:41:00;18.12;62.55
48898;DHT22;34713;50.038;20.000;2022-10-16T07:43:27;18.26;62.34
48898;DHT22;34713;50.038;20.000;2022-10-16T07:45:53;18.57;61.48
48898;DHT22;34713;50.038;20.000;2022-10-16T07:48:22;18.84;60.67
48898;DHT22;34713;50.038;20.000;2022-10-16T07:50:48;19.15;60.10
48898;DHT22;34713;50.038;20.000;2022-10-16T07:53:15;19.35;59.56
48898;DHT22;34713;50.038;20.000;2022-10-16T07:55:41;19.46;58.93
48898;DHT22;34713;50.038;20.000;2022-10-16T07:58:07;19.36;58.90
48898;DHT22;34713;50.038;20.000;2022-10-16T08:00:33;19.23;59.23
48898;DHT22;34713;50.038;20.000;2022-10-16T08:02:59;19.19;59.38
48898;DHT22;34713;50.038;20.000;2022-10-16T08:05:30;19.16;59.56
48898;DHT22;34713;50.038;20.000;2022-10-16T08:07:57;19.16;59.51
48898;DHT22;34713;50.038;20.000;2022-10-16T08:10:25;19.18;59.47
48898;DHT22;34713;50.038;20.000;2022-10-16T08:12:52;19.21;59.47
48898;DHT22;34713;50.038;20.000;2022-10-16T08:15:19;19.21;59.45
48898;DHT22;34713;50.038;20.000;2022-10-16T08:18:00;19.26;59.45
48898;DHT22;34713;50.038;20.000;2022-10-16T08:20:28;19.26;59.33
48898;DHT22;34713;50.038;20.000;2022-10-16T08:22:55;19.25;59.40
48898;DHT22;34713;50.038;20.000;2022-10-16T08:25:22;19.26;59.58
48898;DHT22;34713;50.038;20.000;2022-10-16T08:27:48;19.32;59.56
48898;DHT22;34713;50.038;20.000;2022-10-16T08:30:16;19.36;59.60
48898;DHT22;34713;50.038;20.000;2022-10-16T08:32:42;19.39;59.54
48898;DHT22;34713;50.038;20.000;2022-10-16T08:35:10;19.45;59.26
48898;DHT22;34713;50.038;20.000;2022-10-16T08:37:36;19.46;59.15
48898;DHT22;34713;50.038;20.000;2022-10-16T08:40:06;19.50;59.18
48898;DHT22;34713;50.038;20.000;2022-10-16T08:48:23;19.70;58.64
48898;DHT22;34713;50.038;20.000;2022-10-16T08:50:51;19.76;58.01
48898;DHT22;34713;50.038;20.000;2022-10-16T08:53:25;19.84;58.33
48898;DHT22;34713;50.038;20.000;2022-10-16T08:55:53;19.84;58.15
48898;DHT22;34713;50.038;20.000;2022-10-16T08:58:22;19.91;57.99
48898;DHT22;34713;50.038;20.000;2022-10-16T09:01:00;19.95;57.65
48898;DHT22;34713;50.038;20.000;2022-10-16T09:18:12;20.56;57.18
48898;DHT22;34713;50.038;20.000;2022-10-16T09:23:37;20.79;56.83
48898;DHT22;34713;50.038;20.000;2022-10-16T09:26:05;20.84;56.47
48898;DHT22;34713;50.038;20.000;2022-10-16T09:28:31;20.91;56.17
48898;DHT22;34713;50.038;20.000;2022-10-16T09:30:57;20.95;56.14
48898;DHT22;34713;50.038;20.000;2022-10-16T09:33:30;21.03;56.12
48898;DHT22;34713;50.038;20.000;2022-10-16T09:35:57;21.10;56.13
48898;DHT22;34713;50.038;20.000;2022-10-16T09:38:33;21.17;55.94
48898;DHT22;34713;50.038;20.000;2022-10-16T09:41:02;21.25;55.64
48898;DHT22;34713;50.038;20.000;2022-10-16T09:43:56;21.30;55.38
48898;DHT22;34713;50.038;20.000;2022-10-16T09:46:30;21.35;55.37
48898;DHT22;34713;50.038;20.000;2022-10-16T09:49:00;21.42;55.48
48898;DHT22;34713;50.038;20.000;2022-10-16T09:51:37;21.46;55.32
48898;DHT22;34713;50.038;20.000;2022-10-16T09:54:13;21.52;55.18
48898;DHT22;34713;50.038;20.000;2022-10-16T09:56:38;21.53;55.00
48898;DHT22;34713;50.038;20.000;2022-10-16T09:59:16;21.59;54.92
48898;DHT22;34713;50.038;20.000;2022-10-16T10:01:47;21.63;54.69
48898;DHT22;34713;50.038;20.000;2022-10-16T10:04:14;21.70;54.60
48898;DHT22;34713;50.038;20.000;2022-10-16T10:06:49;21.79;54.18
48898;DHT22;34713;50.038;20.000;2022-10-16T10:12:01;22.00;53.53
48898;DHT22;34713;50.038;20.000;2022-10-16T10:14:35;22.07;53.16
48898;DHT22;34713;50.038;20.000;2022-10-16T10:19:54;22.23;52.77
48898;DHT22;34713;50.038;20.000;2022-10-16T10:22:42;22.27;52.42
48898;DHT22;34713;50.038;20.000;2022-10-16T10:28:27;22.42;51.75
48898;DHT22;34713;50.038;20.000;2022-10-16T10:36:34;22.55;51.30
48898;DHT22;34713;50.038;20.000;2022-10-16T10:42:16;22.64;50.75
48898;DHT22;34713;50.038;20.000;2022-10-16T10:45:11;22.69;50.69
48898;DHT22;34713;50.038;20.000;2022-10-16T10:47:48;22.71;50.60
48898;DHT22;34713;50.038;20.000;2022-10-16T10:50:32;22.76;50.42
48898;DHT22;34713;50.038;20.000;2022-10-16T11:01:20;22.90;49.88
48898;DHT22;34713;50.038;20.000;2022-10-16T11:07:01;23.00;49.86
48898;DHT22;34713;50.038;20.000;2022-10-16T11:09:30;23.06;49.95
48898;DHT22;34713;50.038;20.000;2022-10-16T11:15:19;23.09;49.75
48898;DHT22;34713;50.038;20.000;2022-10-16T11:18:08;23.10;49.62
48898;DHT22;34713;50.038;20.000;2022-10-16T11:20:42;23.16;49.53
48898;DHT22;34713;50.038;20.000;2022-10-16T11:26:24;23.22;49.27
48898;DHT22;34713;50.038;20.000;2022-10-16T11:28:56;23.26;49.13
48898;DHT22;34713;50.038;20.000;2022-10-16T11:34:47;23.33;49.16
48898;DHT22;34713;50.038;20.000;2022-10-16T11:37:12;23.34;49.12
48898;DHT22;34713;50.038;20.000;2022-10-16T11:39:39;23.34;49.02
48898;DHT22;34713;50.038;20.000;2022-10-16T11:42:16;23.34;49.14
48898;DHT22;34713;50.038;20.000;2022-10-16T11:45:00;23.36;49.18
48898;DHT22;34713;50.038;20.000;2022-10-16T11:47:47;23.37;48.95
48898;DHT22;34713;50.038;20.000;2022-10-16T11:55:59;23.41;48.57
48898;DHT22;34713;50.038;20.000;2022-10-16T11:58:41;23.40;48.65
48898;DHT22;34713;50.038;20.000;2022-10-16T12:04:14;23.38;48.68
48898;DHT22;34713;50.038;20.000;2022-10-16T12:09:27;23.38;48.47
48898;DHT22;34713;50.038;20.000;2022-10-16T12:11:53;23.36;48.56
48898;DHT22;34713;50.038;20.000;2022-10-16T12:14:36;23.27;48.48
48898;DHT22;34713;50.038;20.000;2022-10-16T12:17:34;23.22;48.67
48898;DHT22;34713;50.038;20.000;2022-10-16T12:20:26;23.17;48.96
48898;DHT22;34713;50.038;20.000;2022-10-16T12:22:56;23.16;48.95
48898;DHT22;34713;50.038;20.000;2022-10-16T12:25:27;23.15;49.01
48898;DHT22;34713;50.038;20.000;2022-10-16T12:28:03;23.10;49.23
48898;DHT22;34713;50.038;20.000;2022-10-16T12:30:30;23.12;49.30
48898;DHT22;34713;50.038;20.000;2022-10-16T12:33:05;23.09;49.41
48898;DHT22;34713;50.038;20.000;2022-10-16T12:35:42;23.15;49.18
48898;DHT22;34713;50.038;20.000;2022-10-16T12:38:24;23.17;49.23
48898;DHT22;34713;50.038;20.000;2022-10-16T12:41:03;23.24;48.96
48898;DHT22;34713;50.038;20.000;2022-10-16T12:43:40;23.32;49.06
48898;DHT22;34713;50.038;20.000;2022-10-16T12:48:43;23.32;48.82
48898;DHT22;34713;50.038;20.000;2022-10-16T12:54:16;23.37;48.61
48898;DHT22;34713;50.038;20.000;2022-10-16T12:57:24;23.32;48.41
48898;DHT22;34713;50.038;20.000;2022-10-16T13:18:02;23.24;48.63
48898;DHT22;34713;50.038;20.000;2022-10-16T13:26:08;23.27;48.92
48898;DHT22;34713;50.038;20.000;2022-10-16T13:28:34;23.27;49.09
48898;DHT22;34713;50.038;20.000;2022-10-16T13:31:02;23.29;48.96
48898;DHT22;34713;50.038;20.000;2022-10-16T13:33:38;23.26;48.72
48898;DHT22;34713;50.038;20.000;2022-10-16T13:36:06;23.22;48.66
48898;DHT22;34713;50.038;20.000;2022-10-16T13:38:35;23.20;49.00
48898;DHT22;34713;50.038;20.000;2022-10-16T13:41:13;23.19;49.16
48898;DHT22;34713;50.038;20.000;2022-10-16T13:43:41;23.16;49.46
48898;DHT22;34713;50.038;20.000;2022-10-16T13:46:24;23.16;49.58
48898;DHT22;34713;50.038;20.000;2022-10-16T13:49:05;23.13;49.62
48898;DHT22;34713;50.038;20.000;2022-10-16T13:51:32;23.09;49.63
48898;DHT22;34713;50.038;20.000;2022-10-16T13:53:59;23.06;49.61
48898;DHT22;34713;50.038;20.000;2022-10-16T13:56:28;23.05;49.72
48898;DHT22;34713;50.038;20.000;2022-10-16T13:59:06;22.99;49.82
48898;DHT22;34713;50.038;20.000;2022-10-16T14:01:43;22.95;50.17
48898;DHT22;34713;50.038;20.000;2022-10-16T14:04:11;22.90;50.12
48898;DHT22;34713;50.038;20.000;2022-10-16T14:06:44;22.86;50.19
48898;DHT22;34713;50.038;20.000;2022-10-16T14:11:55;22.75;50.42
48898;DHT22;34713;50.038;20.000;2022-10-16T14:14:20;22.68;50.58
48898;DHT22;34713;50.038;20.000;2022-10-16T14:16:46;22.61;50.83
48898;DHT22;34713;50.038;20.000;2022-10-16T14:19:25;22.59;51.05
48898;DHT22;34713;50.038;20.000;2022-10-16T14:21:52;22.52;51.05
48898;DHT22;34713;50.038;20.000;2022-10-16T14:27:00;22.47;51.36
48898;DHT22;34713;50.038;20.000;2022-10-16T14:29:29;22.39;51.54
48898;DHT22;34713;50.038;20.000;2022-10-16T14:32:03;22.35;51.62
48898;DHT22;34713;50.038;20.000;2022-10-16T14:34:36;22.34;51.64
48898;DHT22;34713;50.038;20.000;2022-10-16T14:37:28;22.30;51.77
48898;DHT22;34713;50.038;20.000;2022-10-16T14:39:55;22.18;51.94
48898;DHT22;34713;50.038;20.000;2022-10-16T14:42:24;22.13;52.06
48898;DHT22;34713;50.038;20.000;2022-10-16T14:44:52;22.06;52.25
48898;DHT22;34713;50.038;20.000;2022-10-16T14:47:21;21.99;52.41
48898;DHT22;34713;50.038;20.000;2022-10-16T14:49:49;21.96;52.62
48898;DHT22;34713;50.038;20.000;2022-10-16T14:52:15;21.86;52.72
48898;DHT22;34713;50.038;20.000;2022-10-16T14:54:42;21.82;52.80
48898;DHT22;34713;50.038;20.000;2022-10-16T14:57:18;21.77;52.88
48898;DHT22;34713;50.038;20.000;2022-10-16T14:59:44;21.73;52.92
48898;DHT22;34713;50.038;20.000;2022-10-16T15:02:23;21.68;53.05
48898;DHT22;34713;50.038;20.000;2022-10-16T15:04:48;21.61;53.25
48898;DHT22;34713;50.038;20.000;2022-10-16T15:07:15;21.55;53.31
48898;DHT22;34713;50.038;20.000;2022-10-16T15:09:41;21.48;53.37
48898;DHT22;34713;50.038;20.000;2022-10-16T15:12:07;21.41;53.68
48898;DHT22;34713;50.038;20.000;2022-10-16T15:14:32;21.37;53.75
48898;DHT22;34713;50.038;20.000;2022-10-16T15:16:59;21.31;53.91
48898;DHT22;34713;50.038;20.000;2022-10-16T15:19:25;21.27;54.01
48898;DHT22;34713;50.038;20.000;2022-10-16T15:21:51;21.21;54.13
48898;DHT22;34713;50.038;20.000;2022-10-16T15:24:18;21.17;54.29
48898;DHT22;34713;50.038;20.000;2022-10-16T15:26:44;21.11;54.37
48898;DHT22;34713;50.038;20.000;2022-10-16T15:29:12;21.08;54.50
48898;DHT22;34713;50.038;20.000;2022-10-16T15:31:38;21.03;54.59
48898;DHT22;34713;50.038;20.000;2022-10-16T15:34:09;20.97;54.73
48898;DHT22;34713;50.038;20.000;2022-10-16T15:36:37;20.91;54.91
48898;DHT22;34713;50.038;20.000;2022-10-16T15:39:12;20.87;55.20
48898;DHT22;34713;50.038;20.000;2022-10-16T15:41:36;20.80;55.27
48898;DHT22;34713;50.038;20.000;2022-10-16T15:44:02;20.76;55.45
48898;DHT22;34713;50.038;20.000;2022-10-16T15:46:28;20.70;55.52
48898;DHT22;34713;50.038;20.000;2022-10-16T15:48:57;20.62;55.62
48898;DHT22;34713;50.038;20.000;2022-10-16T15:51:24;20.59;55.86
48898;DHT22;34713;50.038;20.000;2022-10-16T15:53:50;20.53;55.95
48898;DHT22;34713;50.038;20.000;2022-10-16T15:56:17;20.47;56.10
48898;DHT22;34713;50.038;20.000;2022-10-16T15:58:43;20.40;56.36
48898;DHT22;34713;50.038;20.000;2022-10-16T16:01:10;20.36;56.55
48898;DHT22;34713;50.038;20.000;2022-10-16T16:03:38;20.32;56.63
48898;DHT22;34713;50.038;20.000;2022-10-16T16:06:09;20.25;56.80
48898;DHT22;34713;50.038;20.000;2022-10-16T16:08:36;20.16;56.98
48898;DHT22;34713;50.038;20.000;2022-10-16T16:11:09;20.14;57.20
48898;DHT22;34713;50.038;20.000;2022-10-16T16:13:35;20.11;57.33
48898;DHT22;34713;50.038;20.000;2022-10-16T16:16:10;20.03;57.52
48898;DHT22;34713;50.038;20.000;2022-10-16T16:18:36;20.00;57.78
48898;DHT22;34713;50.038;20.000;2022-10-16T16:21:03;19.92;57.92
48898;DHT22;34713;50.038;20.000;2022-10-16T16:23:29;19.88;58.10
48898;DHT22;34713;50.038;20.000;2022-10-16T16:26:10;19.82;58.25
48898;DHT22;34713;50.038;20.000;2022-10-16T16:28:38;19.74;58.40
48898;DHT22;34713;50.038;20.000;2022-10-16T16:31:04;19.70;58.55
48898;DHT22;34713;50.038;20.000;2022-10-16T16:33:30;19.66;58.70
48898;DHT22;34713;50.038;20.000;2022-10-16T16:35:59;19.57;58.86
48898;DHT22;34713;50.038;20.000;2022-10-16T16:38:25;19.52;58.97
48898;DHT22;34713;50.038;20.000;2022-10-16T16:40:51;19.47;59.22
48898;DHT22;34713;50.038;20.000;2022-10-16T16:43:27;19.42;59.39
48898;DHT22;34713;50.038;20.000;2022-10-16T16:45:54;19.39;59.54
48898;DHT22;34713;50.038;20.000;2022-10-16T16:48:20;19.33;59.76
48898;DHT22;34713;50.038;20.000;2022-10-16T16:50:46;19.27;59.95
48898;DHT22;34713;50.038;20.000;2022-10-16T16:53:12;19.23;60.07
48898;DHT22;34713;50.038;20.000;2022-10-16T16:55:38;19.18;60.11
48898;DHT22;34713;50.038;20.000;2022-10-16T16:58:04;19.15;60.20
48898;DHT22;34713;50.038;20.000;2022-10-16T17:00:30;19.10;60.24
48898;DHT22;34713;50.038;20.000;2022-10-16T17:02:57;19.02;60.46
48898;DHT22;34713;50.038;20.000;2022-10-16T17:05:23;18.89;60.61
48898;DHT22;34713;50.038;20.000;2022-10-16T17:07:49;18.81;60.82
48898;DHT22;34713;50.038;20.000;2022-10-16T17:10:15;18.72;60.96
48898;DHT22;34713;50.038;20.000;2022-10-16T17:12:40;18.64;61.14
48898;DHT22;34713;50.038;20.000;2022-10-16T17:15:08;18.61;61.18
48898;DHT22;34713;50.038;20.000;2022-10-16T17:17:33;18.56;61.26
48898;DHT22;34713;50.038;20.000;2022-10-16T17:19:59;18.53;61.25
48898;DHT22;34713;50.038;20.000;2022-10-16T17:22:25;18.50;61.28
48898;DHT22;34713;50.038;20.000;2022-10-16T17:24:51;18.46;61.19
48898;DHT22;34713;50.038;20.000;2022-10-16T17:27:18;18.41;61.09